Time;durP1;ratioP1;P1;durP2;ratioP2;P2;SDS_P1;SDS_P2;PMS_P1;PMS_P2;Temp;Humidity;BMP_temperature;BMP_pressure;BME280_temperature;BME280_humidity;BME280_pressure;Samples;Min_cycle;Max_cycle;Signal;HPM_P1;HPM_P2
2024/04/13 00:02:57;;;;;;;2.87;1.60;;;;;;;;;;10958402;26;20061;-74
2024/04/13 00:08:05;;;;;;;2.35;1.33;;;;;;;;;;10972420;26;20025;-74
2024/04/13 00:13:10;;;;;;;2.03;1.45;;;;;;;;;;10963711;26;20020;-74
2024/04/13 00:18:15;;;;;;;3.17;1.50;;;;;;;;;;10954569;26;20621;-74
2024/04/13 00:23:24;;;;;;;1.90;1.25;;;;;;;;;;10960071;26;20032;-74
2024/04/13 00:28:30;;;;;;;1.80;1.05;;;;;;;;;;10959845;26;20009;-74
2024/04/13 00:33:37;;;;;;;2.43;1.40;;;;;;;;;;10960704;26;20010;-75
2024/04/13 00:38:44;;;;;;;3.20;1.50;;;;;;;;;;10959555;26;20013;-74
2024/04/13 00:43:49;;;;;;;1.65;1.25;;;;;;;;;;10970506;26;20024;-74
2024/04/13 00:48:56;;;;;;;2.17;1.33;;;;;;;;;;10962496;26;20009;-74
2024/04/13 00:54:04;;;;;;;2.15;1.38;;;;;;;;;;10951623;26;20580;-74
2024/04/13 00:59:09;;;;;;;2.28;1.38;;;;;;;;;;10953509;26;20009;-74
2024/04/13 01:04:15;;;;;;;2.60;1.23;;;;;;;;;;10957049;26;20522;-75
2024/04/13 01:09:23;;;;;;;2.22;1.55;;;;;;;;;;10973644;26;20005;-74
2024/04/13 01:14:28;;;;;;;3.72;1.58;;;;;;;;;;10966312;26;20010;-74
2024/04/13 01:19:34;;;;;;;3.08;1.63;;;;;;;;;;10963693;26;20010;-74
2024/04/13 01:24:42;;;;;;;1.33;1.10;;;;;;;;;;10956521;26;20055;-74
2024/04/13 01:29:47;;;;;;;1.45;1.00;;;;;;;;;;11014726;26;20013;-74
2024/04/13 01:34:52;;;;;;;2.10;1.23;;;;;;;;;;11001095;26;20032;-74
2024/04/13 01:40:00;;;;;;;1.50;1.20;;;;;;;;;;11036604;26;20790;-74
2024/04/13 01:45:06;;;;;;;1.77;1.23;;;;;;;;;;10980515;26;20025;-74
2024/04/13 01:50:12;;;;;;;1.13;0.90;;;;;;;;;;10962208;26;20709;-74
2024/04/13 01:55:20;;;;;;;;;;;;;;;;;;10965292;26;20013;-75
2024/04/13 02:00:25;;;;;;;1.05;0.95;;;;;;;;;;10993787;26;19933;-74
2024/04/13 02:05:30;;;;;;;1.23;1.10;;;;;;;;;;10958418;26;20727;-74
2024/04/13 02:10:39;;;;;;;1.83;1.05;;;;;;;;;;10965048;26;20185;-75
2024/04/13 02:15:49;;;;;;;2.33;1.48;;;;;;;;;;10956492;26;20029;-74
2024/04/13 02:20:55;;;;;;;2.38;1.60;;;;;;;;;;10947421;27;20010;-74
2024/04/13 02:26:03;;;;;;;2.53;1.67;;;;;;;;;;10964384;26;20005;-74
2024/04/13 02:31:08;;;;;;;1.90;1.38;;;;;;;;;;10964605;26;20019;-74
2024/04/13 02:36:13;;;;;;;1.33;1.15;;;;;;;;;;10962805;26;20362;-75
2024/04/13 02:41:21;;;;;;;1.80;1.35;;;;;;;;;;10963146;26;20621;-75
2024/04/13 02:46:26;;;;;;;1.67;1.30;;;;;;;;;;10965970;26;20024;-75
2024/04/13 02:51:31;;;;;;;4.30;1.13;;;;;;;;;;10988534;26;20010;-74
2024/04/13 02:56:39;;;;;;;2.45;1.20;;;;;;;;;;10959618;26;20022;-74
2024/04/13 03:01:44;;;;;;;3.22;1.13;;;;;;;;;;10962532;27;20024;-74
2024/04/13 03:06:49;;;;;;;1.17;1.02;;;;;;;;;;10972172;26;20762;-74
2024/04/13 03:11:57;;;;;;;1.40;1.00;;;;;;;;;;10970950;26;20029;-74
2024/04/13 03:17:02;;;;;;;1.50;1.10;;;;;;;;;;10973296;26;20056;-74
2024/04/13 03:22:07;;;;;;;3.00;1.20;;;;;;;;;;10971124;26;20042;-74
2024/04/13 03:27:15;;;;;;;2.35;1.10;;;;;;;;;;10962871;26;20122;-74
2024/04/13 03:32:20;;;;;;;1.38;1.13;;;;;;;;;;10964429;26;20010;-74
2024/04/13 03:37:26;;;;;;;2.20;1.25;;;;;;;;;;10985182;26;20028;-74
2024/04/13 03:42:34;;;;;;;1.25;1.08;;;;;;;;;;11016796;26;20013;-74
2024/04/13 03:47:39;;;;;;;1.58;1.25;;;;;;;;;;10970378;26;20644;-74
2024/04/13 03:52:45;;;;;;;1.63;1.10;;;;;;;;;;10966156;27;20013;-74
2024/04/13 03:57:52;;;;;;;1.98;1.42;;;;;;;;;;11025812;21;20304;-75
2024/04/13 04:02:58;;;;;;;1.38;1.27;;;;;;;;;;11089155;26;20008;-75
2024/04/13 04:08:03;;;;;;;3.22;1.40;;;;;;;;;;11138743;26;20016;-75
2024/04/13 04:13:10;;;;;;;2.28;1.33;;;;;;;;;;11142944;26;20007;-75
2024/04/13 04:18:15;;;;;;;2.92;1.65;;;;;;;;;;11166443;26;20011;-75
2024/04/13 04:23:21;;;;;;;1.42;1.33;;;;;;;;;;11162711;26;20008;-75
2024/04/13 04:28:28;;;;;;;2.97;1.13;;;;;;;;;;11110211;26;20719;-75
2024/04/13 04:33:33;;;;;;;1.67;1.10;;;;;;;;;;11120543;26;20009;-75
2024/04/13 04:38:38;;;;;;;2.05;1.40;;;;;;;;;;11115695;26;20009;-75
2024/04/13 04:43:46;;;;;;;1.95;1.70;;;;;;;;;;11122250;26;20023;-75
2024/04/13 04:48:52;;;;;;;2.72;1.70;;;;;;;;;;11097151;26;20437;-75
2024/04/13 04:53:57;;;;;;;1.80;1.47;;;;;;;;;;11088000;26;20023;-75
2024/04/13 04:59:04;;;;;;;1.75;1.50;;;;;;;;;;11121100;26;20031;-75
2024/04/13 05:04:09;;;;;;;1.95;1.40;;;;;;;;;;11119718;26;20012;-75
2024/04/13 05:09:14;;;;;;;1.38;1.25;;;;;;;;;;11121661;26;20012;-75
2024/04/13 05:14:22;;;;;;;1.92;1.50;;;;;;;;;;11117066;26;20023;-75
2024/04/13 05:19:27;;;;;;;2.85;1.17;;;;;;;;;;11116771;26;20019;-75
2024/04/13 05:24:33;;;;;;;1.40;1.30;;;;;;;;;;11082154;26;20019;-75
2024/04/13 05:29:40;;;;;;;1.75;1.55;;;;;;;;;;11112310;26;20012;-75
2024/04/13 05:34:45;;;;;;;3.70;1.60;;;;;;;;;;11114243;26;20076;-74
2024/04/13 05:39:51;;;;;;;1.40;1.30;;;;;;;;;;11114315;26;20513;-75
2024/04/13 05:44:59;;;;;;;1.93;1.40;;;;;;;;;;11121451;26;20078;-75
2024/04/13 05:50:04;;;;;;;2.67;1.35;;;;;;;;;;11099998;26;20278;-75
2024/04/13 05:55:09;;;;;;;1.88;1.17;;;;;;;;;;11114771;26;20023;-75
2024/04/13 06:00:17;;;;;;;3.35;1.50;;;;;;;;;;11114362;26;20004;-75
2024/04/13 06:05:22;;;;;;;1.98;1.60;;;;;;;;;;11111441;26;20008;-75
2024/04/13 06:10:28;;;;;;;2.17;1.25;;;;;;;;;;11115019;26;20004;-75
2024/04/13 06:15:39;;;;;;;2.40;1.60;;;;;;;;;;11142178;26;20008;-75
2024/04/13 06:20:44;;;;;;;2.72;1.90;;;;;;;;;;11110529;26;20019;-75
2024/04/13 06:25:49;;;;;;;3.22;1.60;;;;;;;;;;11100948;26;20009;-75
2024/04/13 06:30:57;;;;;;;1.63;1.40;;;;;;;;;;11132122;26;20018;-75
2024/04/13 06:36:02;;;;;;;2.83;1.23;;;;;;;;;;11117742;26;20412;-75
2024/04/13 06:41:07;;;;;;;1.98;1.38;;;;;;;;;;11111195;26;20020;-75
2024/04/13 06:46:15;;;;;;;2.10;1.42;;;;;;;;;;11114901;26;20012;-75
2024/04/13 06:51:20;;;;;;;2.05;1.20;;;;;;;;;;11110367;26;20008;-75
2024/04/13 06:56:25;;;;;;;1.25;1.15;;;;;;;;;;11114642;26;20015;-75
2024/04/13 07:01:32;;;;;;;1.25;0.90;;;;;;;;;;11112989;26;20026;-75
2024/04/13 07:06:39;;;;;;;1.27;1.00;;;;;;;;;;11138207;26;20481;-75
2024/04/13 07:11:44;;;;;;;1.42;1.10;;;;;;;;;;11111766;26;20004;-75
2024/04/13 07:16:52;;;;;;;1.30;1.20;;;;;;;;;;11119865;26;20022;-75
2024/04/13 07:21:57;;;;;;;1.50;1.00;;;;;;;;;;11117193;26;20018;-75
2024/04/13 07:27:02;;;;;;;2.35;1.30;;;;;;;;;;11115989;26;20008;-75
2024/04/13 07:32:10;;;;;;;3.08;1.10;;;;;;;;;;11126930;26;20031;-75
2024/04/13 07:37:15;;;;;;;1.50;0.85;;;;;;;;;;11112731;26;20008;-75
2024/04/13 07:42:20;;;;;;;1.42;0.75;;;;;;;;;;11117289;26;20023;-75
2024/04/13 07:47:28;;;;;;;2.37;1.10;;;;;;;;;;11119896;26;20007;-75
2024/04/13 07:52:34;;;;;;;3.45;0.90;;;;;;;;;;11118052;26;20555;-73
2024/04/13 07:57:39;;;;;;;1.60;0.95;;;;;;;;;;11124445;26;20468;-73
2024/04/13 08:02:47;;;;;;;1.50;0.80;;;;;;;;;;11132022;26;20349;-73
2024/04/13 08:07:52;;;;;;;1.08;0.90;;;;;;;;;;11116357;26;20012;-73
2024/04/13 08:12:57;;;;;;;0.82;0.65;;;;;;;;;;11114166;26;20353;-73
2024/04/13 08:18:05;;;;;;;1.33;1.10;;;;;;;;;;11112537;26;20023;-73
2024/04/13 08:23:10;;;;;;;1.35;0.90;;;;;;;;;;11116130;26;20479;-73
2024/04/13 08:28:18;;;;;;;1.02;0.60;;;;;;;;;;11112637;26;20004;-73
2024/04/13 08:33:26;;;;;;;3.53;1.65;;;;;;;;;;11117759;26;20012;-73
2024/04/13 08:38:31;;;;;;;1.95;1.10;;;;;;;;;;11127261;26;20020;-73
2024/04/13 08:43:37;;;;;;;3.23;1.00;;;;;;;;;;11116649;26;20008;-73
2024/04/13 08:48:45;;;;;;;1.33;0.82;;;;;;;;;;11115604;26;20480;-73
2024/04/13 08:53:51;;;;;;;2.25;1.17;;;;;;;;;;11123094;26;20016;-73
2024/04/13 08:58:58;;;;;;;2.38;1.10;;;;;;;;;;11111042;26;20448;-73
2024/04/13 09:04:06;;;;;;;0.80;0.70;;;;;;;;;;11114400;26;20016;-73
2024/04/13 09:09:12;;;;;;;1.92;1.10;;;;;;;;;;11108900;26;21402;-73
2024/04/13 09:14:17;;;;;;;2.20;0.95;;;;;;;;;;11115598;26;20023;-73
2024/04/13 09:19:25;;;;;;;3.30;1.17;;;;;;;;;;11112432;26;20019;-73
2024/04/13 09:24:40;;;;;;;1.60;0.70;;;;;;;;;;11117509;26;20008;-73
2024/04/13 09:29:46;;;;;;;5.55;1.55;;;;;;;;;;11123221;26;19999;-73
2024/04/13 09:34:54;;;;;;;2.22;1.27;;;;;;;;;;11120990;26;20019;-73
2024/04/13 09:40:06;;;;;;;2.53;1.33;;;;;;;;;;11116420;26;20023;-73
2024/04/13 09:45:12;;;;;;;3.05;1.30;;;;;;;;;;11113167;26;20031;-73
2024/04/13 09:50:19;;;;;;;;;;;;;;;;;;11119890;26;20016;-73
2024/04/13 09:55:24;;;;;;;1.92;1.30;;;;;;;;;;11112432;26;19926;-73
2024/04/13 10:00:30;;;;;;;2.40;1.10;;;;;;;;;;11010291;21;20584;-74
2024/04/13 10:05:39;;;;;;;;;;;;;;;;;;10965607;26;20010;-74
2024/04/13 10:10:47;;;;;;;1.77;0.80;;;;;;;;;;11021691;26;19941;-74
2024/04/13 10:15:53;;;;;;;1.10;0.50;;;;;;;;;;11088035;26;20008;-74
2024/04/13 10:21:03;;;;;;;;;;;;;;;;;;11098818;26;20013;-74
2024/04/13 10:26:08;;;;;;;3.28;1.25;;;;;;;;;;11098889;26;19932;-74
2024/04/13 10:31:20;;;;;;;1.13;0.70;;;;;;;;;;11107944;26;20020;-74
2024/04/13 10:36:33;;;;;;;1.95;0.90;;;;;;;;;;11099728;26;20338;-74
2024/04/13 10:41:40;;;;;;;0.50;0.50;;;;;;;;;;11103125;26;20093;-74
2024/04/13 10:46:45;;;;;;;2.10;0.80;;;;;;;;;;11106708;26;20179;-74
2024/04/13 10:51:53;;;;;;;1.85;1.05;;;;;;;;;;11050417;26;20026;-74
2024/04/13 10:57:03;;;;;;;1.80;0.80;;;;;;;;;;11103005;26;20027;-74
2024/04/13 11:02:10;;;;;;;0.93;0.50;;;;;;;;;;11107548;26;20012;-74
2024/04/13 11:07:20;;;;;;;0.32;0.32;;;;;;;;;;11087507;26;20017;-74
2024/04/13 11:12:25;;;;;;;0.77;0.45;;;;;;;;;;11080250;26;20408;-74
2024/04/13 11:17:30;;;;;;;1.05;0.73;;;;;;;;;;11101851;26;20012;-74
2024/04/13 11:22:38;;;;;;;0.85;0.70;;;;;;;;;;11101685;26;20461;-74
2024/04/13 11:27:43;;;;;;;0.82;0.47;;;;;;;;;;11110624;26;20019;-74
2024/04/13 11:32:49;;;;;;;0.57;0.57;;;;;;;;;;11101840;26;20009;-74
2024/04/13 11:38:03;;;;;;;0.93;0.70;;;;;;;;;;11105620;26;20088;-74
2024/04/13 11:43:08;;;;;;;1.63;0.55;;;;;;;;;;11108759;26;20345;-74
2024/04/13 11:48:13;;;;;;;0.98;0.70;;;;;;;;;;11110160;26;20023;-74
2024/04/13 11:53:21;;;;;;;1.38;0.60;;;;;;;;;;11102830;26;20008;-74
2024/04/13 11:58:26;;;;;;;1.15;0.70;;;;;;;;;;11102376;26;20766;-74
2024/04/13 12:03:31;;;;;;;0.88;0.65;;;;;;;;;;11112142;26;20020;-74
2024/04/13 12:08:39;;;;;;;2.03;0.43;;;;;;;;;;11110933;26;20019;-74
2024/04/13 12:13:44;;;;;;;1.38;0.60;;;;;;;;;;11110328;26;20023;-74
2024/04/13 12:18:51;;;;;;;1.63;0.77;;;;;;;;;;11105980;26;20015;-74
2024/04/13 12:23:59;;;;;;;2.50;0.80;;;;;;;;;;11064611;26;20027;-74
2024/04/13 12:29:05;;;;;;;1.77;0.70;;;;;;;;;;11097559;26;20004;-73
2024/04/13 12:34:10;;;;;;;2.50;0.90;;;;;;;;;;11041959;26;20020;-74
2024/04/13 12:39:19;;;;;;;0.82;0.45;;;;;;;;;;11100807;26;20016;-74
2024/04/13 12:44:24;;;;;;;1.17;0.47;;;;;;;;;;11106327;26;20021;-74
2024/04/13 12:49:29;;;;;;;1.60;0.60;;;;;;;;;;11102399;26;20019;-74
2024/04/13 12:54:40;;;;;;;3.83;0.55;;;;;;;;;;11105069;26;20008;-74
2024/04/13 12:59:45;;;;;;;1.67;0.73;;;;;;;;;;11066415;26;20008;-74
2024/04/13 13:04:50;;;;;;;1.88;1.10;;;;;;;;;;11076141;26;20008;-74
2024/04/13 13:09:58;;;;;;;1.00;0.57;;;;;;;;;;11070275;26;20413;-74
2024/04/13 13:15:03;;;;;;;0.73;0.40;;;;;;;;;;11068680;26;20023;-74
2024/04/13 13:20:09;;;;;;;;;;;;;;;;;;11103661;26;20016;-74
2024/04/13 13:25:16;;;;;;;2.00;0.70;;;;;;;;;;11087937;26;19933;-74
2024/04/13 13:30:22;;;;;;;0.70;0.70;;;;;;;;;;11100558;26;20004;-74
2024/04/13 13:35:27;;;;;;;1.77;0.82;;;;;;;;;;11074845;26;20012;-74
2024/04/13 13:40:34;;;;;;;1.00;0.90;;;;;;;;;;11087315;26;20024;-74
2024/04/13 13:45:40;;;;;;;0.90;0.60;;;;;;;;;;11071646;26;20009;-74
2024/04/13 13:50:45;;;;;;;1.23;0.60;;;;;;;;;;11099881;26;20090;-74
2024/04/13 13:55:52;;;;;;;;;;;;;;;;;;11087801;26;20004;-74
2024/04/13 14:00:57;;;;;;;1.23;0.40;;;;;;;;;;11105586;26;20021;-75
2024/04/13 14:06:03;;;;;;;;;;;;;;;;;;11104464;26;20026;-74
2024/04/13 14:11:11;;;;;;;0.40;0.30;;;;;;;;;;11111359;26;20650;-77
2024/04/13 14:16:17;;;;;;;1.65;0.45;;;;;;;;;;11071145;26;20008;-75
2024/04/13 14:21:24;;;;;;;;;;;;;;;;;;11097548;26;20016;-74
2024/04/13 14:26:31;;;;;;;0.30;0.20;;;;;;;;;;11066058;26;20175;-74
2024/04/13 14:31:36;;;;;;;2.13;0.60;;;;;;;;;;11060269;26;20012;-74
2024/04/13 14:36:41;;;;;;;1.38;0.77;;;;;;;;;;11102979;26;20008;-75
2024/04/13 14:41:51;;;;;;;1.73;0.70;;;;;;;;;;11108132;26;20005;-74
2024/04/13 14:46:56;;;;;;;1.00;0.68;;;;;;;;;;11103569;26;20008;-74
2024/04/13 14:52:01;;;;;;;;;;;;;;;;;;11107825;26;20020;-74
2024/04/13 14:57:09;;;;;;;1.50;0.30;;;;;;;;;;11114830;26;19925;-74
2024/04/13 15:02:14;;;;;;;0.40;0.40;;;;;;;;;;11112149;26;20004;-74
2024/04/13 15:07:20;;;;;;;0.55;0.47;;;;;;;;;;11093813;26;20012;-74
2024/04/13 15:12:28;;;;;;;0.32;0.32;;;;;;;;;;11090926;26;20454;-74
2024/04/13 15:17:33;;;;;;;0.25;0.25;;;;;;;;;;11089258;26;20023;-74
2024/04/13 15:22:38;;;;;;;;;;;;;;;;;;11116080;26;20008;-74
2024/04/13 15:27:46;;;;;;;0.80;0.40;;;;;;;;;;11095492;26;20620;-74
2024/04/13 15:32:51;;;;;;;0.65;0.40;;;;;;;;;;11093943;26;20012;-74
2024/04/13 15:37:58;;;;;;;;;;;;;;;;;;11099904;26;20607;-74
2024/04/13 15:43:06;;;;;;;0.77;0.43;;;;;;;;;;11105490;26;19932;-75
2024/04/13 15:48:11;;;;;;;1.08;0.40;;;;;;;;;;11086079;26;20024;-74
2024/04/13 15:53:16;;;;;;;;;;;;;;;;;;11106473;26;20024;-74
2024/04/13 15:58:24;;;;;;;;;;;;;;;;;;11088334;26;19944;-74
2024/04/13 16:03:29;;;;;;;1.17;0.73;;;;;;;;;;11097655;26;19925;-74
2024/04/13 16:08:34;;;;;;;;;;;;;;;;;;11096659;26;20480;-74
2024/04/13 16:13:41;;;;;;;1.30;0.40;;;;;;;;;;11079299;26;19941;-74
2024/04/13 16:18:46;;;;;;;0.95;0.60;;;;;;;;;;11082510;26;20027;-74
2024/04/13 16:23:52;;;;;;;2.30;0.50;;;;;;;;;;11106031;26;20115;-74
2024/04/13 16:28:59;;;;;;;;;;;;;;;;;;11103653;26;20470;-74
2024/04/13 16:34:04;;;;;;;1.30;0.80;;;;;;;;;;11049462;26;19925;-74
2024/04/13 16:39:09;;;;;;;2.60;0.70;;;;;;;;;;11099450;26;20027;-74
2024/04/13 16:44:18;;;;;;;0.80;0.40;;;;;;;;;;11070070;26;20065;-74
2024/04/13 16:49:23;;;;;;;1.13;0.50;;;;;;;;;;11096694;26;20337;-74
2024/04/13 16:54:28;;;;;;;;;;;;;;;;;;11095516;26;20005;-74
2024/04/13 16:59:36;;;;;;;0.70;0.60;;;;;;;;;;11099192;26;19933;-74
2024/04/13 17:04:41;;;;;;;1.20;0.45;;;;;;;;;;11087076;26;20331;-74
2024/04/13 17:09:46;;;;;;;;;;;;;;;;;;11098583;26;20013;-74
2024/04/13 17:14:54;;;;;;;0.93;0.47;;;;;;;;;;11088570;26;19925;-74
2024/04/13 17:19:59;;;;;;;0.52;0.50;;;;;;;;;;11089314;26;20461;-74
2024/04/13 17:25:05;;;;;;;2.42;0.82;;;;;;;;;;11096815;26;20815;-74
2024/04/13 17:30:13;;;;;;;;;;;;;;;;;;11059616;26;20027;-74
2024/04/13 17:35:18;;;;;;;1.25;0.60;;;;;;;;;;11080548;26;19925;-74
2024/04/13 17:40:23;;;;;;;1.45;0.70;;;;;;;;;;11104495;26;20341;-74
2024/04/13 17:45:32;;;;;;;0.65;0.57;;;;;;;;;;11089603;26;20495;-74
2024/04/13 17:50:38;;;;;;;0.82;0.70;;;;;;;;;;11088208;26;20048;-74
2024/04/13 17:55:45;;;;;;;0.93;0.55;;;;;;;;;;11099723;26;20027;-74
2024/04/13 18:00:54;;;;;;;1.00;0.80;;;;;;;;;;11094578;26;20016;-74
2024/04/13 18:06:00;;;;;;;1.75;0.65;;;;;;;;;;11107141;26;20085;-74
2024/04/13 18:11:05;;;;;;;3.60;3.30;;;;;;;;;;11104135;26;20027;-73
2024/04/13 18:16:14;;;;;;;2.78;2.13;;;;;;;;;;11106473;26;20313;-75
2024/04/13 18:21:19;;;;;;;3.53;1.50;;;;;;;;;;11103841;26;20023;-74
2024/04/13 18:26:24;;;;;;;1.80;1.52;;;;;;;;;;11075125;26;20153;-74
2024/04/13 18:31:33;;;;;;;2.38;1.15;;;;;;;;;;11115800;26;20059;-74
2024/04/13 18:36:38;;;;;;;1.50;1.00;;;;;;;;;;11099981;26;20023;-74
2024/04/13 18:41:43;;;;;;;2.37;1.37;;;;;;;;;;11104304;26;20008;-73
2024/04/13 18:46:51;;;;;;;1.10;1.00;;;;;;;;;;11086365;26;20008;-74
2024/04/13 18:51:57;;;;;;;1.73;1.08;;;;;;;;;;11101808;26;20345;-74
2024/04/13 18:57:02;;;;;;;2.42;1.50;;;;;;;;;;11085392;26;20022;-73
2024/04/13 19:02:09;;;;;;;2.17;1.23;;;;;;;;;;11103614;26;20027;-73
2024/04/13 19:07:14;;;;;;;1.67;1.23;;;;;;;;;;11096498;26;20004;-73
2024/04/13 19:12:20;;;;;;;3.30;1.60;;;;;;;;;;11102201;26;20008;-73
2024/04/13 19:17:27;;;;;;;2.23;1.50;;;;;;;;;;11057166;26;20004;-73
2024/04/13 19:22:32;;;;;;;2.08;1.20;;;;;;;;;;11097585;26;20012;-74
2024/04/13 19:27:37;;;;;;;2.50;0.97;;;;;;;;;;11086262;26;20009;-73
2024/04/13 19:32:45;;;;;;;2.63;1.20;;;;;;;;;;11087310;26;20027;-73
2024/04/13 19:37:51;;;;;;;2.40;1.35;;;;;;;;;;11095748;26;20012;-74
2024/04/13 19:42:55;;;;;;;1.87;1.47;;;;;;;;;;11084380;26;20020;-74
2024/04/13 19:48:03;;;;;;;4.50;1.43;;;;;;;;;;11083900;26;20024;-74
2024/04/13 19:53:09;;;;;;;2.40;1.30;;;;;;;;;;11092619;26;20019;-73
2024/04/13 19:58:14;;;;;;;1.15;0.90;;;;;;;;;;11100335;26;20047;-73
2024/04/13 20:03:22;;;;;;;2.50;1.13;;;;;;;;;;11110473;26;20027;-73
2024/04/13 20:08:29;;;;;;;1.10;1.00;;;;;;;;;;11115087;26;20008;-73
2024/04/13 20:13:34;;;;;;;1.90;1.07;;;;;;;;;;11104332;26;20015;-73
2024/04/13 20:18:45;;;;;;;3.45;1.30;;;;;;;;;;11105892;26;20563;-73
2024/04/13 20:23:50;;;;;;;3.78;1.55;;;;;;;;;;11112336;26;20031;-73
2024/04/13 20:28:55;;;;;;;3.17;1.60;;;;;;;;;;11100986;26;20374;-73
2024/04/13 20:34:03;;;;;;;2.45;1.70;;;;;;;;;;11095886;26;20470;-73
2024/04/13 20:39:09;;;;;;;1.80;1.33;;;;;;;;;;11085388;26;20020;-73
2024/04/13 20:44:14;;;;;;;;;;;;;;;;;;11107861;26;20012;-73
2024/04/13 20:49:21;;;;;;;1.77;1.10;;;;;;;;;;11101821;26;19926;-73
2024/04/13 20:54:26;;;;;;;1.42;1.20;;;;;;;;;;11084397;26;20492;-74
2024/04/13 20:59:32;;;;;;;2.22;1.17;;;;;;;;;;11108966;26;20012;-73
2024/04/13 21:04:39;;;;;;;1.40;1.10;;;;;;;;;;11089990;26;20034;-73
2024/04/13 21:09:44;;;;;;;2.42;1.67;;;;;;;;;;11101705;26;20008;-73
2024/04/13 21:14:50;;;;;;;1.63;1.20;;;;;;;;;;11102814;26;20011;-73
2024/04/13 21:19:58;;;;;;;2.08;1.10;;;;;;;;;;11107430;26;20577;-73
2024/04/13 21:25:03;;;;;;;1.35;1.10;;;;;;;;;;11080787;26;20004;-73
2024/04/13 21:30:09;;;;;;;3.13;1.15;;;;;;;;;;11065717;26;20822;-73
2024/04/13 21:35:17;;;;;;;1.25;1.00;;;;;;;;;;11100121;26;21365;-73
2024/04/13 21:40:22;;;;;;;2.00;1.10;;;;;;;;;;11095001;26;20019;-73
2024/04/13 21:45:27;;;;;;;1.08;0.60;;;;;;;;;;11101722;26;20023;-73
2024/04/13 21:50:38;;;;;;;2.17;1.17;;;;;;;;;;11086590;26;20008;-74
2024/04/13 21:55:43;;;;;;;2.10;1.10;;;;;;;;;;11087543;26;20465;-73
2024/04/13 22:00:48;;;;;;;1.27;0.90;;;;;;;;;;11258170;21;20116;-74
2024/04/13 22:05:56;;;;;;;1.23;0.90;;;;;;;;;;11248497;26;20082;-75
2024/04/13 22:11:01;;;;;;;3.03;0.90;;;;;;;;;;11184054;26;20004;-75
2024/04/13 22:16:07;;;;;;;1.42;1.00;;;;;;;;;;11185057;26;20019;-74
2024/04/13 22:21:15;;;;;;;;;;;;;;;;;;11178554;26;20385;-75
2024/04/13 22:26:20;;;;;;;3.70;1.02;;;;;;;;;;11178922;26;20281;-75
2024/04/13 22:31:25;;;;;;;1.65;1.13;;;;;;;;;;11144331;26;20018;-75
2024/04/13 22:36:32;;;;;;;1.20;0.85;;;;;;;;;;11151936;26;20022;-74
2024/04/13 22:41:37;;;;;;;1.90;1.10;;;;;;;;;;11174532;26;20008;-75
2024/04/13 22:46:42;;;;;;;0.85;0.82;;;;;;;;;;11181384;26;20023;-75
2024/04/13 22:51:50;;;;;;;1.33;0.90;;;;;;;;;;11181601;26;20011;-75
2024/04/13 22:56:55;;;;;;;2.35;1.00;;;;;;;;;;11180230;26;20004;-74
2024/04/13 23:02:00;;;;;;;1.75;0.95;;;;;;;;;;11168233;26;20012;-75
2024/04/13 23:07:08;;;;;;;0.60;0.60;;;;;;;;;;11176019;26;20021;-75
2024/04/13 23:12:13;;;;;;;1.60;0.80;;;;;;;;;;11185633;26;20023;-74
2024/04/13 23:17:22;;;;;;;1.83;0.90;;;;;;;;;;11183653;26;20760;-75
2024/04/13 23:22:29;;;;;;;0.95;0.70;;;;;;;;;;11179587;26;20717;-75
2024/04/13 23:27:34;;;;;;;1.27;0.70;;;;;;;;;;11188461;26;20007;-75
2024/04/13 23:32:39;;;;;;;0.90;0.55;;;;;;;;;;11184642;26;20008;-75
2024/04/13 23:37:47;;;;;;;0.80;0.68;;;;;;;;;;11188566;26;20026;-75
2024/04/13 23:42:52;;;;;;;0.70;0.60;;;;;;;;;;11184056;26;20023;-75
2024/04/13 23:47:57;;;;;;;1.15;0.85;;;;;;;;;;11157239;26;20026;-75
2024/04/13 23:53:04;;;;;;;1.67;0.90;;;;;;;;;;11189983;26;20023;-75
2024/04/13 23:58:09;;;;;;;1.05;0.57;;;;;;;;;;11188004;26;20030;-75
